Time,TemperatureF,DewpointF,PressureIn,WindDirection,WindDirectionDegrees,WindSpeedMPH,WindSpeedGustMPH,Humidity,HourlyPrecipIn,Conditions,Clouds,dailyrainin,SolarRadiationWatts/m^2,SoftwareType,DateUTC
2013-08-22 00:00:00,75.9,68.0,29.94,SW,228,1.0,6.0,76,0.00,,,0.00,0,weatherlink.com 1.10,2013-08-22 04:00:00,
2013-08-22 00:15:00,75.5,68.0,29.93,SW,235,4.0,8.0,77,0.00,,,0.00,0,weatherlink.com 1.10,2013-08-22 04:15:00,
2013-08-22 00:30:00,75.2,68.0,29.92,SW,234,0.0,7.0,77,0.00,,,0.00,0,weatherlink.com 1.10,2013-08-22 04:30:00,
2013-08-22 00:45:00,74.8,68.0,29.91,SW,215,6.0,7.0,78,0.00,,,0.00,0,weatherlink.com 1.10,2013-08-22 04:45:00,
2013-08-22 01:00:00,74.6,68.0,29.93,SW,214,1.0,6.0,79,0.00,,,0.00,0,weatherlink.com 1.10,2013-08-22 05:00:00,
2013-08-22 01:15:00,74.8,68.0,29.94,SW,233,2.0,7.0,79,0.00,,,0.00,0,weatherlink.com 1.10,2013-08-22 05:15:00,
2013-08-22 01:30:00,74.7,68.0,29.95,WSW,255,1.0,6.0,79,0.00,,,0.00,0,weatherlink.com 1.10,2013-08-22 05:30:00,
2013-08-22 01:45:00,74.6,68.0,29.95,WSW,254,1.0,6.0,79,0.00,,,0.00,0,weatherlink.com 1.10,2013-08-22 05:45:00,
2013-08-22 02:00:00,74.5,68.0,29.96,WSW,252,4.0,5.0,79,0.00,,,0.00,0,weatherlink.com 1.10,2013-08-22 06:00:00,
2013-08-22 02:15:00,74.3,68.0,29.95,WSW,252,2.0,3.0,80,0.00,,,0.00,0,weatherlink.com 1.10,2013-08-22 06:15:00,
2013-08-22 02:30:00,74.1,68.0,29.97,WSW,252,0.0,2.0,80,0.00,,,0.00,0,weatherlink.com 1.10,2013-08-22 06:30:00,
2013-08-22 02:45:00,74.2,68.0,29.97,North,11,5.0,6.0,80,0.00,,,0.00,0,weatherlink.com 1.10,2013-08-22 06:45:00,
2013-08-22 03:00:00,74.1,68.0,29.97,NNE,27,1.0,7.0,81,0.00,,,0.00,0,weatherlink.com 1.10,2013-08-22 07:00:00,
2013-08-22 03:15:00,73.3,68.0,29.97,NE,41,2.0,7.0,83,0.00,,,0.00,0,weatherlink.com 1.10,2013-08-22 07:15:00,
2013-08-22 03:30:00,72.1,68.0,29.98,NE,36,6.0,10.0,86,0.00,,,0.00,0,weatherlink.com 1.10,2013-08-22 07:30:00,
2013-08-22 03:45:00,70.1,67.0,29.99,NE,39,3.0,13.0,88,0.00,,,0.00,0,weatherlink.com 1.10,2013-08-22 07:45:00,
2013-08-22 04:00:00,69.0,66.0,29.98,NE,39,0.0,5.0,90,0.04,,,0.04,0,weatherlink.com 1.10,2013-08-22 08:00:00,
2013-08-22 04:16:00,68.1,65.0,29.96,ENE,67,1.0,4.0,91,0.07,,,0.07,0,weatherlink.com 1.10,2013-08-22 08:16:00,
2013-08-22 04:31:00,67.3,65.0,29.96,SSW,196,0.0,6.0,93,0.08,,,0.08,0,weatherlink.com 1.10,2013-08-22 08:31:00,
2013-08-22 04:46:00,66.9,65.0,29.93,South,179,3.0,6.0,94,0.10,,,0.10,0,weatherlink.com 1.10,2013-08-22 08:46:00,
2013-08-22 05:01:00,66.7,65.0,29.90,South,179,7.0,12.0,94,0.07,,,0.12,0,weatherlink.com 1.10,2013-08-22 09:01:00,
2013-08-22 05:16:00,66.9,66.0,29.89,SSE,147,1.0,10.0,95,0.06,,,0.13,0,weatherlink.com 1.10,2013-08-22 09:16:00,
2013-08-22 05:31:00,67.4,66.0,29.93,SSE,147,0.0,4.0,95,0.06,,,0.14,0,weatherlink.com 1.10,2013-08-22 09:31:00,
2013-08-22 05:46:00,67.6,66.0,29.93,NE,42,3.0,6.0,95,0.04,,,0.14,0,weatherlink.com 1.10,2013-08-22 09:46:00,
2013-08-22 06:01:00,67.6,66.0,29.92,NE,42,1.0,3.0,95,0.01,,,0.14,0,weatherlink.com 1.10,2013-08-22 10:01:00,
2013-08-22 06:16:00,67.6,66.0,29.92,NE,42,0.0,4.0,95,0.00,,,0.14,0,weatherlink.com 1.10,2013-08-22 10:16:00,
2013-08-22 06:31:00,67.6,66.0,29.92,NE,38,2.0,6.0,95,0.00,,,0.14,0,weatherlink.com 1.10,2013-08-22 10:31:00,
2013-08-22 06:46:00,67.7,67.0,29.93,SW,229,4.0,8.0,96,0.00,,,0.14,0,weatherlink.com 1.10,2013-08-22 10:46:00,
2013-08-22 08:31:00,68.9,68.0,29.95,SW,220,1.0,6.0,96,0.00,,,0.14,53,weatherlink.com 1.10,2013-08-22 12:31:00,
2013-08-22 08:46:00,69.2,68.0,29.94,SW,220,1.0,6.0,96,0.00,,,0.14,67,weatherlink.com 1.10,2013-08-22 12:46:00,
2013-08-22 09:01:00,69.5,68.0,29.94,SW,220,6.0,6.0,96,0.00,,,0.14,107,weatherlink.com 1.10,2013-08-22 13:01:00,
2013-08-22 09:16:00,69.9,69.0,29.95,SW,222,0.0,7.0,95,0.00,,,0.14,127,weatherlink.com 1.10,2013-08-22 13:16:00,
2013-08-22 09:31:00,70.5,69.0,29.94,WSW,252,5.0,8.0,95,0.00,,,0.14,207,weatherlink.com 1.10,2013-08-22 13:31:00,
2013-08-22 09:46:00,71.3,69.0,29.95,WSW,256,3.0,9.0,93,0.00,,,0.14,211,weatherlink.com 1.10,2013-08-22 13:46:00,
2013-08-22 10:01:00,72.1,70.0,29.95,WSW,257,4.0,8.0,92,0.00,,,0.14,207,weatherlink.com 1.10,2013-08-22 14:01:00,
2013-08-22 10:16:00,72.6,70.0,29.95,WSW,248,3.0,7.0,91,0.00,,,0.14,155,weatherlink.com 1.10,2013-08-22 14:16:00,
2013-08-22 10:31:00,72.8,70.0,29.95,West,266,4.0,8.0,91,0.00,,,0.14,146,weatherlink.com 1.10,2013-08-22 14:31:00,
2013-08-22 10:46:00,73.1,70.0,29.96,West,277,4.0,10.0,90,0.00,,,0.14,169,weatherlink.com 1.10,2013-08-22 14:46:00,
2013-08-22 11:01:00,73.3,70.0,29.97,WSW,247,7.0,10.0,89,0.00,,,0.14,163,weatherlink.com 1.10,2013-08-22 15:01:00,
2013-08-22 11:16:00,73.4,70.0,29.96,West,270,5.0,12.0,88,0.00,,,0.14,176,weatherlink.com 1.10,2013-08-22 15:16:00,
2013-08-22 11:31:00,73.7,70.0,29.97,West,262,8.0,8.0,87,0.00,,,0.14,202,weatherlink.com 1.10,2013-08-22 15:31:00,
2013-08-22 11:46:00,73.8,70.0,29.97,West,276,4.0,9.0,87,0.00,,,0.14,239,weatherlink.com 1.10,2013-08-22 15:46:00,
2013-08-22 12:01:00,73.9,70.0,29.96,WNW,282,1.0,9.0,86,0.00,,,0.14,220,weatherlink.com 1.10,2013-08-22 16:01:00,
2013-08-22 12:16:00,74.1,70.0,29.96,WSW,258,0.0,9.0,86,0.00,,,0.14,185,weatherlink.com 1.10,2013-08-22 16:16:00,
2013-08-22 12:31:00,73.9,69.0,29.97,West,265,1.0,7.0,85,0.00,,,0.14,139,weatherlink.com 1.10,2013-08-22 16:31:00,
2013-08-22 12:46:00,73.7,69.0,29.98,West,271,3.0,9.0,85,0.00,,,0.14,139,weatherlink.com 1.10,2013-08-22 16:46:00,
2013-08-22 13:01:00,73.6,69.0,29.98,WSW,252,5.0,9.0,86,0.00,,,0.14,193,weatherlink.com 1.10,2013-08-22 17:01:00,
2013-08-22 13:16:00,73.4,69.0,29.98,WSW,254,9.0,12.0,86,0.00,,,0.14,218,weatherlink.com 1.10,2013-08-22 17:16:00,
2013-08-22 13:31:00,73.9,69.0,30.00,NW,306,5.0,9.0,84,0.00,,,0.14,114,weatherlink.com 1.10,2013-08-22 17:31:00,
2013-08-22 13:46:00,73.9,69.0,30.01,WNW,297,6.0,15.0,83,0.00,,,0.14,98,weatherlink.com 1.10,2013-08-22 17:46:00,
2013-08-22 14:01:00,72.4,68.0,30.01,WNW,295,8.0,15.0,87,0.02,,,0.16,155,weatherlink.com 1.10,2013-08-22 18:01:00,
2013-08-22 14:16:00,72.2,68.0,30.01,North,354,6.0,13.0,87,0.02,,,0.16,105,weatherlink.com 1.10,2013-08-22 18:16:00,
2013-08-22 14:31:00,72.2,68.0,30.00,North,4,6.0,12.0,86,0.02,,,0.16,86,weatherlink.com 1.10,2013-08-22 18:31:00,
2013-08-22 14:46:00,71.9,67.0,30.00,NW,306,2.0,15.0,85,0.02,,,0.16,104,weatherlink.com 1.10,2013-08-22 18:46:00,
2013-08-22 15:01:00,70.9,67.0,30.02,WNW,291,9.0,18.0,88,0.01,,,0.17,91,weatherlink.com 1.10,2013-08-22 19:01:00,
2013-08-22 15:16:00,70.4,67.0,30.01,NW,322,7.0,14.0,90,0.02,,,0.18,148,weatherlink.com 1.10,2013-08-22 19:16:00,
2013-08-22 15:31:00,70.2,67.0,29.99,NNE,14,6.0,18.0,90,0.02,,,0.18,146,weatherlink.com 1.10,2013-08-22 19:31:00,
2013-08-22 15:46:00,70.4,67.0,29.99,NW,304,4.0,10.0,90,0.02,,,0.18,130,weatherlink.com 1.10,2013-08-22 19:46:00,
2013-08-22 16:01:00,70.4,67.0,29.98,North,359,7.0,12.0,89,0.01,,,0.18,111,weatherlink.com 1.10,2013-08-22 20:01:00,
2013-08-22 16:16:00,70.5,67.0,29.97,WNW,297,4.0,10.0,89,0.00,,,0.18,74,weatherlink.com 1.10,2013-08-22 20:16:00,
2013-08-22 16:31:00,70.4,67.0,29.97,NW,319,2.0,9.0,88,0.00,,,0.18,63,weatherlink.com 1.10,2013-08-22 20:31:00,
2013-08-22 16:47:00,70.6,67.0,29.97,North,354,0.0,7.0,88,0.00,,,0.18,102,weatherlink.com 1.10,2013-08-22 20:47:00,
2013-08-22 17:02:00,71.0,67.0,29.96,North,354,2.0,3.0,88,0.00,,,0.18,174,weatherlink.com 1.10,2013-08-22 21:02:00,
2013-08-22 17:17:00,71.5,67.0,29.95,North,354,0.0,2.0,84,0.00,,,0.18,197,weatherlink.com 1.10,2013-08-22 21:17:00,
2013-08-22 17:32:00,71.7,67.0,29.93,NNW,346,1.0,4.0,85,0.00,,,0.18,163,weatherlink.com 1.10,2013-08-22 21:32:00,
2013-08-22 17:47:00,71.7,67.0,29.90,ENE,75,1.0,8.0,85,0.00,,,0.18,199,weatherlink.com 1.10,2013-08-22 21:47:00,
2013-08-22 18:02:00,71.2,67.0,29.87,ESE,106,3.0,14.0,87,0.00,,,0.18,148,weatherlink.com 1.10,2013-08-22 22:02:00,
2013-08-22 18:17:00,71.2,67.0,29.90,ESE,115,2.0,4.0,87,0.00,,,0.18,88,weatherlink.com 1.10,2013-08-22 22:17:00,
2013-08-22 18:32:00,71.3,67.0,29.93,ESE,115,0.0,2.0,86,0.00,,,0.18,65,weatherlink.com 1.10,2013-08-22 22:32:00,
2013-08-22 18:47:00,71.7,67.0,29.94,ESE,115,2.0,4.0,85,0.00,,,0.18,58,weatherlink.com 1.10,2013-08-22 22:47:00,
2013-08-22 19:02:00,71.8,67.0,29.93,ESE,115,0.0,2.0,85,0.00,,,0.18,65,weatherlink.com 1.10,2013-08-22 23:02:00,
2013-08-22 19:17:00,71.7,67.0,29.95,SE,126,0.0,4.0,86,0.00,,,0.18,53,weatherlink.com 1.10,2013-08-22 23:17:00,
2013-08-22 19:32:00,71.2,67.0,29.95,WNW,295,0.0,5.0,87,0.00,,,0.18,49,weatherlink.com 1.10,2013-08-22 23:32:00,
2013-08-22 19:47:00,71.1,67.0,29.94,WNW,295,0.0,3.0,88,0.00,,,0.18,30,weatherlink.com 1.10,2013-08-22 23:47:00,
2013-08-22 20:02:00,70.7,67.0,29.94,WNW,295,1.0,2.0,89,0.00,,,0.18,21,weatherlink.com 1.10,2013-08-23 00:02:00,
2013-08-22 20:17:00,70.6,68.0,29.95,WNW,295,0.0,2.0,90,0.00,,,0.18,18,weatherlink.com 1.10,2013-08-23 00:17:00,
2013-08-22 20:32:00,70.4,67.0,29.95,WNW,295,0.0,4.0,90,0.00,,,0.18,9,weatherlink.com 1.10,2013-08-23 00:32:00,
2013-08-22 20:47:00,70.2,67.0,29.96,WNW,295,1.0,5.0,90,0.00,,,0.18,0,weatherlink.com 1.10,2013-08-23 00:47:00,
2013-08-22 21:02:00,70.1,67.0,29.97,WNW,295,3.0,5.0,91,0.00,,,0.18,0,weatherlink.com 1.10,2013-08-23 01:02:00,
2013-08-22 21:17:00,69.8,67.0,29.97,WNW,295,0.0,2.0,91,0.00,,,0.18,0,weatherlink.com 1.10,2013-08-23 01:17:00,
2013-08-22 21:32:00,69.4,67.0,29.98,WNW,295,3.0,4.0,91,0.00,,,0.18,0,weatherlink.com 1.10,2013-08-23 01:32:00,
2013-08-22 21:47:00,69.0,67.0,29.98,WNW,294,0.0,5.0,92,0.00,,,0.18,0,weatherlink.com 1.10,2013-08-23 01:47:00,
2013-08-22 22:02:00,68.8,67.0,29.98,West,280,3.0,8.0,93,0.00,,,0.18,0,weatherlink.com 1.10,2013-08-23 02:02:00,
2013-08-22 22:17:00,68.8,66.0,29.99,WNW,286,4.0,6.0,92,0.00,,,0.18,0,weatherlink.com 1.10,2013-08-23 02:17:00,
2013-08-22 22:32:00,68.9,67.0,29.99,WNW,286,0.0,5.0,92,0.00,,,0.18,0,weatherlink.com 1.10,2013-08-23 02:32:00,
2013-08-22 22:47:00,68.8,66.0,29.99,WNW,287,2.0,5.0,92,0.00,,,0.18,0,weatherlink.com 1.10,2013-08-23 02:47:00,
2013-08-22 23:02:00,68.7,66.0,29.99,WNW,287,1.0,5.0,92,0.00,,,0.18,0,weatherlink.com 1.10,2013-08-23 03:02:00,
2013-08-22 23:17:00,68.8,66.0,29.99,WNW,287,0.0,5.0,91,0.00,,,0.18,0,weatherlink.com 1.10,2013-08-23 03:17:00,
2013-08-22 23:32:00,68.8,66.0,29.99,WNW,287,2.0,5.0,90,0.00,,,0.18,0,weatherlink.com 1.10,2013-08-23 03:32:00,
2013-08-22 23:47:00,68.7,66.0,29.98,WNW,293,0.0,7.0,90,0.00,,,0.18,0,weatherlink.com 1.10,2013-08-23 03:47:00,